Home   Weather   Qatar   Doha   Past weeks
Flag for Qatar

Past Weather in Doha, Qatar — Yesterday and Last 2 Weeks

Currently: 106 °F. Passing clouds. (Weather station: Doha International Airport, Qatar). See more current weather

Past Weather in Doha — Graph

°F

Doha Temperature Yesterday

Maximum temperature yesterday: 111 °F (at 11:30 am)
Minimum temperature yesterday: 90 °F (at 12:30 am)
Average temperature yesterday: 101 °F

High & Low Weather Summary for the Past Weeks

 TemperatureHumidityPressure
High117 °F (Jun 21, 12:00 pm)89% (Jun 13, 11:30 pm)29.62 "Hg (Jun 13, 11:30 pm)
Low82 °F (Jun 13, 4:00 am)4% (Jun 19, 10:30 am)29.33 "Hg (Jun 21, 3:00 pm)
Average97 °F42%29.50 "Hg
* Reported Jun 11 6:00 am — Jun 26 6:00 am, Doha. Weather by CustomWeather, © 2022

Note: Actual official high and low records may vary slightly from our data, if they occured in-between our weather recording intervals... More about our weather records

Doha Weather History for the Previous 24 Hours

Scroll right to see more
 ConditionsComfort  
Time TempWeatherWind HumidityBarometerVisibility
6:00 am
Sun, Jun 26
100 °FPassing clouds.7 mph27%29.45 "HgN/A
5:30 am100 °FPassing clouds.9 mph25%29.45 "HgN/A
5:00 am97 °FPassing clouds.6 mph32%29.42 "HgN/A
4:30 am97 °FPassing clouds.6 mph34%29.42 "HgN/A
4:00 am99 °FPassing clouds.5 mph27%29.42 "HgN/A
2:30 am100 °FPassing clouds.5 mph18%29.42 "HgN/A
2:00 am100 °FPassing clouds.3 mph18%29.42 "HgN/A
1:30 am100 °FClear.2 mph18%29.42 "Hg10 mi
1:00 am99 °FClear.3 mph19%29.42 "Hg10 mi
12:30 am99 °FClear.5 mph18%29.42 "Hg10 mi
12:00 am99 °FClear.2 mph19%29.42 "Hg10 mi
11:00 pm
Sat, Jun 25
102 °FClear.7 mph17%29.45 "Hg10 mi
10:00 pm104 °FClear.8 mph15%29.47 "Hg10 mi
9:30 pm104 °FClear.8 mph16%29.47 "Hg10 mi
9:00 pm104 °FClear.7 mph17%29.47 "Hg10 mi
8:00 pm106 °FClear.9 mph18%29.47 "Hg10 mi
7:30 pm106 °FClear.9 mph17%29.45 "Hg10 mi
7:00 pm104 °FClear.9 mph21%29.45 "Hg10 mi
6:30 pm106 °FClear.10 mph25%29.45 "Hg10 mi
6:00 pm106 °FSunny.13 mph25%29.45 "Hg10 mi
5:00 pm108 °FSunny.14 mph25%29.45 "Hg10 mi
4:30 pm108 °FSunny.17 mph26%29.45 "Hg10 mi
3:30 pm108 °FPassing clouds.12 mph32%29.45 "HgN/A
3:00 pm109 °FSunny.14 mph27%29.45 "Hg10 mi
2:00 pm108 °FSunny.14 mph32%29.47 "Hg10 mi
1:30 pm106 °FSunny.15 mph32%29.47 "Hg10 mi
1:00 pm108 °FSunny.12 mph30%29.47 "Hg10 mi
12:30 pm108 °FSunny.12 mph28%29.50 "Hg10 mi
11:30 am111 °FPassing clouds.12 mph17%29.50 "HgN/A
11:00 am109 °FSunny.9 mph23%29.50 "Hg10 mi
10:00 am109 °FSunny.13 mph22%29.53 "Hg10 mi
9:30 am108 °FSunny.15 mph22%29.53 "Hg10 mi
9:00 am104 °FSunny.15 mph29%29.53 "Hg10 mi
8:00 am102 °FPassing clouds.8 mph31%29.53 "HgN/A
7:30 am100 °FPassing clouds.7 mph35%29.53 "HgN/A
7:00 am97 °FSunny.9 mph39%29.53 "Hg10 mi
Weather by CustomWeather, © 2022

See weather overview